createdAt,value
2019-05-02T00:00:24.906Z,9.59
2019-05-02T00:01:24.906Z,9.52
2019-05-02T00:02:28.842Z,9.58
2019-05-02T00:03:28.407Z,9.58
2019-05-02T00:04:25.400Z,9.50
2019-05-02T00:05:27.339Z,9.48
2019-05-02T00:06:25.406Z,9.55
2019-05-02T00:07:25.907Z,9.45
2019-05-02T00:08:33.090Z,9.40
2019-05-02T00:09:25.906Z,9.45
2019-05-02T00:10:26.083Z,9.41
2019-05-02T00:11:26.408Z,9.41
2019-05-02T00:12:26.408Z,9.45
2019-05-02T00:13:26.413Z,9.40
2019-05-02T00:14:30.412Z,9.50
2019-05-02T00:15:26.905Z,9.45
2019-05-02T00:16:26.909Z,9.34
2019-05-02T00:17:27.523Z,9.30
2019-05-02T00:18:26.912Z,9.35
2019-05-02T00:19:27.405Z,9.24
2019-05-02T00:20:30.405Z,9.24
2019-05-02T00:21:27.405Z,9.30
2019-05-02T00:22:27.428Z,9.22
2019-05-02T00:23:29.217Z,9.26
2019-05-02T00:24:27.905Z,9.23
2019-05-02T00:25:30.908Z,9.22
2019-05-02T00:26:27.905Z,9.27
2019-05-02T00:27:49.413Z,9.27
2019-05-02T00:28:28.408Z,9.24
2019-05-02T00:29:29.839Z,9.27
2019-05-02T00:30:34.698Z,9.27
2019-05-02T00:31:28.925Z,9.30
2019-05-02T00:32:28.906Z,9.30
2019-05-02T00:33:29.235Z,9.13
2019-05-02T00:34:28.905Z,9.12
2019-05-02T00:35:32.905Z,9.22
2019-05-02T00:36:29.411Z,9.16
2019-05-02T00:37:30.338Z,9.16
2019-05-02T00:38:33.454Z,9.16
2019-05-02T00:39:50.939Z,9.12
2019-05-02T00:40:31.905Z,9.12
2019-05-02T00:41:37.872Z,9.04
2019-05-02T00:42:31.906Z,8.97
2019-05-02T00:43:34.339Z,9.00
2019-05-02T00:44:51.403Z,9.00
2019-05-02T00:45:55.107Z,8.97
2019-05-02T00:46:35.027Z,8.96
2019-05-02T00:47:30.404Z,8.96
2019-05-02T00:48:54.266Z,9.00
2019-05-02T00:49:30.977Z,9.00
2019-05-02T00:50:30.903Z,8.96
2019-05-02T00:51:30.923Z,8.96
2019-05-02T00:52:36.625Z,9.01
2019-05-02T00:53:52.400Z,8.96
2019-05-02T00:54:31.403Z,8.94
2019-05-02T00:55:33.874Z,8.97
2019-05-02T00:56:31.904Z,8.97
2019-05-02T00:59:08.816Z,8.96
2019-05-02T01:00:28.655Z,8.98
2019-05-02T01:01:07.647Z,8.91
2019-05-02T01:02:07.646Z,8.91
2019-05-02T01:03:15.829Z,8.89
2019-05-02T01:04:30.581Z,8.97
2019-05-02T01:05:08.148Z,8.91
2019-05-02T01:06:13.627Z,8.97
2019-05-02T01:07:08.645Z,8.93
2019-05-02T01:08:13.081Z,9.01
2019-05-02T01:09:11.186Z,9.01
2019-05-02T01:10:08.656Z,8.97
2019-05-02T01:11:10.079Z,8.96
2019-05-02T01:12:10.015Z,8.97
2019-05-02T01:13:09.151Z,8.91
2019-05-02T01:14:13.145Z,8.91
2019-05-02T01:16:40.881Z,8.94
2019-05-02T01:17:40.916Z,8.91
2019-05-02T01:18:41.361Z,8.86
2019-05-02T01:19:47.322Z,8.83
2019-05-02T01:20:41.396Z,8.79
2019-05-02T01:21:41.398Z,8.78
2019-05-02T01:22:41.389Z,8.82
2019-05-02T01:23:41.892Z,8.86
2019-05-02T01:24:41.889Z,8.76
2019-05-02T01:25:47.379Z,8.93
2019-05-02T01:26:41.887Z,8.82
2019-05-02T01:27:42.615Z,8.83
2019-05-02T01:28:42.389Z,8.80
2019-05-02T01:29:42.389Z,8.78
2019-05-02T01:30:43.826Z,8.80
2019-05-02T01:33:18.188Z,8.76
2019-05-02T01:34:19.323Z,8.70
2019-05-02T01:35:18.194Z,8.75
2019-05-02T01:36:18.697Z,8.76
2019-05-02T01:37:22.197Z,8.61
2019-05-02T01:38:18.761Z,8.64
2019-05-02T01:39:18.698Z,8.68
2019-05-02T01:40:19.194Z,8.80
2019-05-02T01:41:19.197Z,8.76
2019-05-02T01:42:19.194Z,8.80
2019-05-02T01:43:24.464Z,8.76
2019-05-02T01:44:40.695Z,8.82
2019-05-02T01:45:19.696Z,8.78
2019-05-02T01:46:22.166Z,8.75
2019-05-02T01:48:54.801Z,8.78
2019-05-02T01:49:51.989Z,8.65
2019-05-02T01:50:51.311Z,8.75
2019-05-02T01:51:53.810Z,8.65
2019-05-02T01:52:53.763Z,8.65
2019-05-02T01:53:51.807Z,8.64
2019-05-02T01:54:55.822Z,8.70
2019-05-02T01:55:57.696Z,8.65
2019-05-02T01:56:52.325Z,8.67
2019-05-02T01:57:52.310Z,8.67
2019-05-02T01:58:53.073Z,8.57
2019-05-02T01:59:52.810Z,8.67
2019-05-02T02:00:56.310Z,8.68
2019-05-02T02:02:13.811Z,8.49
2019-05-02T02:02:52.810Z,8.49
2019-05-02T02:03:53.309Z,8.61
2019-05-02T02:06:28.674Z,8.54
2019-05-02T02:07:25.630Z,8.45
2019-05-02T02:08:27.491Z,8.47
2019-05-02T02:09:25.176Z,8.54
2019-05-02T02:10:25.176Z,8.55
2019-05-02T02:11:33.947Z,8.37
2019-05-02T02:12:25.176Z,8.43
2019-05-02T02:13:25.682Z,8.52
2019-05-02T02:14:25.677Z,8.45
2019-05-02T02:15:29.057Z,8.47
2019-05-02T02:16:25.675Z,8.52
2019-05-02T02:17:29.688Z,8.42
2019-05-02T02:18:27.627Z,8.52
2019-05-02T02:19:26.188Z,8.42
2019-05-02T02:20:26.178Z,8.42
2019-05-02T02:21:27.662Z,8.37
2019-05-02T02:22:26.680Z,8.42
2019-05-02T02:23:30.652Z,8.43
2019-05-02T02:24:26.676Z,8.36
2019-05-02T02:25:27.179Z,8.43
2019-05-02T02:26:27.175Z,8.37
2019-05-02T02:27:27.181Z,8.42
2019-05-02T02:28:32.332Z,8.42
2019-05-02T02:29:27.676Z,8.36
2019-05-02T02:30:48.676Z,8.50
2019-05-02T02:31:27.675Z,8.39
2019-05-02T02:32:28.707Z,8.37
2019-05-02T02:33:28.176Z,8.45
2019-05-02T02:34:32.577Z,8.46
2019-05-02T02:35:28.180Z,8.37
2019-05-02T02:36:34.541Z,8.36
2019-05-02T02:37:28.674Z,8.42
2019-05-02T02:38:49.672Z,8.42
2019-05-02T02:39:28.683Z,8.45
2019-05-02T02:40:33.732Z,8.37
2019-05-02T02:41:29.173Z,8.37
2019-05-02T02:42:31.755Z,8.45
2019-05-02T02:43:34.377Z,8.34
2019-05-02T02:44:33.523Z,8.22
2019-05-02T02:45:33.217Z,8.32
2019-05-02T02:46:30.628Z,8.28
2019-05-02T02:47:31.705Z,8.29
2019-05-02T02:48:34.052Z,8.24
2019-05-02T02:49:55.737Z,8.24
2019-05-02T02:50:30.213Z,8.18
2019-05-02T02:51:34.175Z,8.28
2019-05-02T02:52:30.174Z,8.28
2019-05-02T02:53:30.708Z,8.22
2019-05-02T02:54:36.320Z,8.24
2019-05-02T02:55:30.673Z,8.22
2019-05-02T02:56:34.441Z,8.25
2019-05-02T02:59:28.082Z,8.21
2019-05-02T03:00:26.648Z,8.22
2019-05-02T03:01:05.645Z,8.28
2019-05-02T03:02:27.153Z,8.20
2019-05-02T03:03:09.649Z,8.25
2019-05-02T03:04:09.105Z,8.18
2019-05-02T03:05:06.144Z,8.18
2019-05-02T03:06:08.190Z,8.17
2019-05-02T03:07:28.895Z,8.20
2019-05-02T03:08:07.232Z,8.13
2019-05-02T03:09:31.644Z,8.22
2019-05-02T03:10:08.465Z,8.10
2019-05-02T03:11:07.146Z,8.18
2019-05-02T03:12:07.144Z,8.12
2019-05-02T03:13:07.144Z,8.07
2019-05-02T03:14:32.143Z,8.03
2019-05-02T03:15:07.645Z,8.07
2019-05-02T03:16:09.390Z,8.04
2019-05-02T03:17:07.645Z,7.89
2019-05-02T03:18:08.145Z,7.84
2019-05-02T03:19:08.149Z,7.82
2019-05-02T03:20:39.508Z,7.73
2019-05-02T03:21:13.247Z,7.63
2019-05-02T03:22:08.645Z,7.62
2019-05-02T03:23:14.938Z,7.73
2019-05-02T03:24:08.645Z,7.51
2019-05-02T03:25:08.648Z,7.55
2019-05-02T03:26:14.967Z,7.55
2019-05-02T03:27:09.165Z,7.63
2019-05-02T03:28:17.451Z,7.52
2019-05-02T03:29:09.150Z,7.57
2019-05-02T03:30:36.223Z,7.55
2019-05-02T03:31:23.491Z,7.45
2019-05-02T03:32:21.920Z,7.51
2019-05-02T03:33:11.761Z,7.55
2019-05-02T03:34:47.877Z,7.62
2019-05-02T03:35:10.147Z,7.55
2019-05-02T03:36:26.157Z,7.51
2019-05-02T03:37:14.023Z,7.50
2019-05-02T03:38:32.593Z,7.52
2019-05-02T03:39:14.928Z,7.62
2019-05-02T03:40:32.201Z,7.54
2019-05-02T03:41:31.649Z,7.58
2019-05-02T03:42:10.645Z,7.69
2019-05-02T03:43:19.034Z,7.57
2019-05-02T03:44:34.142Z,7.55
2019-05-02T03:45:13.075Z,7.71
2019-05-02T03:46:32.143Z,7.60
2019-05-02T03:47:37.127Z,7.70
2019-05-02T03:48:18.130Z,7.67
2019-05-02T03:49:32.641Z,7.66
2019-05-02T03:50:35.258Z,7.79
2019-05-02T03:51:19.942Z,7.77
2019-05-02T03:52:11.694Z,7.88
2019-05-02T03:53:36.647Z,7.84
2019-05-02T03:54:33.141Z,7.91
2019-05-02T03:55:33.979Z,7.95
2019-05-02T03:56:33.143Z,8.02
2019-05-02T03:57:12.140Z,7.95
2019-05-02T03:58:37.145Z,7.99
2019-05-02T03:59:12.641Z,8.07
2019-05-02T04:00:33.641Z,8.02
2019-05-02T04:01:12.655Z,8.09
2019-05-02T04:02:20.174Z,8.07
2019-05-02T04:03:41.076Z,8.03
2019-05-02T04:04:14.069Z,8.02
2019-05-02T04:05:13.141Z,8.03
2019-05-02T04:06:13.785Z,8.21
2019-05-02T04:09:09.375Z,8.12
2019-05-02T04:09:44.881Z,8.21
2019-05-02T04:10:44.883Z,8.21
2019-05-02T04:12:17.747Z,8.14
2019-05-02T04:12:45.390Z,8.13
2019-05-02T04:13:45.383Z,8.22
2019-05-02T04:14:55.597Z,8.18
2019-05-02T04:15:45.885Z,8.21
2019-05-02T04:16:48.713Z,8.21
2019-05-02T04:17:45.883Z,8.24
2019-05-02T04:18:54.701Z,8.24
2019-05-02T04:20:16.882Z,8.24
2019-05-02T04:20:49.777Z,8.29
2019-05-02T04:21:50.373Z,8.37
2019-05-02T04:22:48.944Z,8.40
2019-05-02T04:24:13.703Z,8.45
2019-05-02T04:24:54.512Z,8.37
2019-05-02T04:26:12.842Z,8.58
2019-05-02T04:26:53.811Z,8.50
2019-05-02T04:27:47.378Z,8.55
2019-05-02T04:28:51.834Z,8.64
2019-05-02T04:29:49.324Z,8.65
2019-05-02T04:30:51.341Z,8.61
2019-05-02T04:31:51.381Z,8.58
2019-05-02T04:32:49.576Z,8.67
2019-05-02T04:33:47.881Z,8.60
2019-05-02T04:34:54.647Z,8.71
2019-05-02T04:35:47.880Z,8.60
2019-05-02T04:36:59.830Z,8.71
2019-05-02T04:37:51.381Z,8.65
2019-05-02T04:38:52.176Z,8.60
2019-05-02T04:39:49.299Z,8.61
2019-05-02T04:40:50.337Z,8.71
2019-05-02T04:41:48.882Z,8.79
2019-05-02T04:43:04.839Z,8.70
2019-05-02T04:44:09.879Z,8.67
2019-05-02T04:45:11.629Z,8.64
2019-05-02T04:45:56.130Z,8.50
2019-05-02T04:46:49.388Z,8.57
2019-05-02T04:47:58.435Z,8.39
2019-05-02T04:48:52.491Z,8.52
2019-05-02T04:51:21.579Z,8.63
2019-05-02T04:52:21.608Z,8.58
2019-05-02T04:53:36.779Z,8.58
2019-05-02T04:54:27.678Z,8.50
2019-05-02T04:55:29.183Z,8.63
2019-05-02T04:56:22.085Z,8.64
2019-05-02T04:57:29.169Z,8.65
2019-05-02T04:58:29.552Z,8.49
2019-05-02T04:59:23.526Z,8.57
2019-05-02T05:00:22.588Z,8.58
2019-05-02T05:01:52.747Z,8.64
2019-05-02T05:02:34.299Z,8.65
2019-05-02T05:03:23.091Z,8.70
2019-05-02T05:04:38.819Z,8.60
2019-05-02T05:05:25.493Z,8.64
2019-05-02T05:06:23.590Z,8.79
2019-05-02T05:07:23.595Z,8.80
2019-05-02T05:08:44.596Z,8.82
2019-05-02T05:09:27.941Z,8.78
2019-05-02T05:10:47.975Z,8.79
2019-05-02T05:11:24.895Z,8.82
2019-05-02T05:12:45.087Z,8.79
2019-05-02T05:13:26.469Z,8.85
2019-05-02T05:14:49.086Z,8.83
2019-05-02T05:15:37.160Z,8.78
2019-05-02T05:16:25.520Z,8.83
2019-05-02T05:17:25.222Z,8.85
2019-05-02T05:18:28.555Z,8.86
2019-05-02T05:19:46.086Z,8.91
2019-05-02T05:20:52.961Z,8.80
2019-05-02T05:21:26.689Z,8.76
2019-05-02T05:22:47.879Z,8.79
2019-05-02T05:23:25.587Z,8.58
2019-05-02T05:24:25.585Z,8.64
2019-05-02T05:25:27.691Z,8.68
2019-05-02T05:26:51.086Z,8.64
2019-05-02T05:27:27.492Z,8.61
2019-05-02T05:28:27.271Z,8.70
2019-05-02T05:29:26.993Z,8.71
2019-05-02T05:30:51.870Z,8.82
2019-05-02T05:31:28.612Z,8.79
2019-05-02T05:32:30.086Z,8.93
2019-05-02T05:33:28.390Z,8.91
2019-05-02T05:34:28.650Z,8.88
2019-05-02T05:35:28.121Z,8.91
2019-05-02T05:36:32.556Z,8.96
2019-05-02T05:37:31.082Z,8.98
2019-05-02T05:38:48.585Z,8.97
2019-05-02T05:39:30.544Z,9.03
2019-05-02T05:40:32.114Z,9.17
2019-05-02T05:41:27.929Z,9.06
2019-05-02T05:42:29.992Z,9.08
2019-05-02T05:43:31.085Z,9.17
2019-05-02T05:44:32.505Z,9.13
2019-05-02T05:45:28.084Z,9.23
2019-05-02T05:46:50.545Z,9.22
2019-05-02T05:50:57.998Z,9.12
2019-05-02T05:53:28.182Z,9.03
2019-05-02T05:54:33.113Z,9.01
2019-05-02T05:55:07.887Z,9.13
2019-05-02T05:56:08.195Z,9.13
2019-05-02T05:57:07.663Z,9.03
2019-05-02T05:58:14.663Z,9.03
2019-05-02T05:59:11.277Z,9.10
2019-05-02T06:00:28.762Z,9.15
2019-05-02T06:01:10.170Z,9.12
2019-05-02T06:02:28.765Z,9.27
2019-05-02T06:03:14.054Z,9.31
2019-05-02T06:04:08.260Z,9.37
2019-05-02T06:05:12.259Z,9.45
2019-05-02T06:06:10.110Z,9.40
2019-05-02T06:07:08.258Z,9.38
2019-05-02T06:09:40.001Z,9.40
2019-05-02T06:10:45.171Z,9.53
2019-05-02T06:11:40.002Z,9.55
2019-05-02T06:14:11.741Z,9.59
2019-05-02T06:15:11.744Z,9.53
2019-05-02T06:16:35.239Z,9.68
2019-05-02T06:17:12.244Z,9.67
2019-05-02T06:18:13.705Z,9.74
2019-05-02T06:19:13.041Z,9.77
2019-05-02T06:20:12.242Z,9.91
2019-05-02T06:21:12.741Z,9.93
2019-05-02T06:22:23.921Z,10.04
2019-05-02T06:23:12.743Z,10.04
2019-05-02T06:24:15.673Z,9.96
2019-05-02T06:25:13.245Z,10.09
2019-05-02T06:26:15.193Z,10.22
2019-05-02T06:27:13.243Z,10.10
2019-05-02T06:28:17.242Z,10.04
2019-05-02T06:29:18.679Z,10.17
2019-05-02T06:30:13.743Z,10.24
2019-05-02T06:31:16.692Z,10.24
2019-05-02T06:32:14.041Z,10.25
2019-05-02T06:33:14.243Z,10.32
2019-05-02T06:34:17.243Z,10.42
2019-05-02T06:35:17.135Z,10.42
2019-05-02T06:36:14.242Z,10.38
2019-05-02T06:37:15.703Z,10.35
2019-05-02T06:38:14.743Z,10.43
2019-05-02T06:41:10.993Z,10.31
2019-05-02T06:41:52.161Z,10.38
2019-05-02T06:42:49.996Z,10.44
2019-05-02T06:45:25.732Z,10.52
2019-05-02T06:46:27.692Z,10.55
2019-05-02T06:47:43.738Z,10.65
2019-05-02T06:48:22.742Z,10.72
2019-05-02T06:49:24.279Z,10.78
2019-05-02T06:50:26.738Z,10.87
2019-05-02T06:51:44.240Z,10.91
2019-05-02T06:52:27.174Z,10.93
2019-05-02T06:53:23.239Z,10.98
2019-05-02T06:54:24.121Z,11.05
2019-05-02T06:55:28.197Z,10.94
2019-05-02T06:56:26.739Z,11.09
2019-05-02T06:57:24.295Z,11.09
2019-05-02T06:58:23.738Z,11.19
2019-05-02T06:59:49.931Z,11.19
2019-05-02T07:00:35.360Z,11.27
2019-05-02T07:01:27.738Z,11.35
2019-05-02T07:02:28.216Z,11.36
2019-05-02T07:03:27.504Z,11.46
2019-05-02T07:05:58.893Z,11.69
2019-05-02T07:07:25.046Z,11.77
2019-05-02T07:07:56.112Z,11.78
2019-05-02T07:08:59.432Z,11.84
2019-05-02T07:09:56.639Z,12.03
2019-05-02T07:11:01.383Z,12.03
2019-05-02T07:12:02.075Z,12.15
2019-05-02T07:13:09.981Z,12.22
2019-05-02T07:13:56.207Z,12.34
2019-05-02T07:15:01.561Z,12.44
2019-05-02T07:15:57.143Z,12.41
2019-05-02T07:17:26.675Z,12.59
2019-05-02T07:17:57.608Z,12.70
2019-05-02T07:20:29.911Z,12.67
2019-05-02T07:21:28.976Z,12.79
2019-05-02T07:22:33.229Z,12.88
2019-05-02T07:23:29.482Z,12.95
2019-05-02T07:24:30.569Z,13.12
2019-05-02T07:25:29.476Z,13.19
2019-05-02T07:26:29.477Z,13.31
2019-05-02T07:27:35.446Z,13.39
2019-05-02T07:28:29.978Z,13.38
2019-05-02T07:29:29.974Z,13.57
2019-05-02T07:30:30.232Z,13.53
2019-05-02T07:31:30.475Z,13.54
2019-05-02T07:32:30.473Z,13.57
2019-05-02T07:33:37.516Z,13.72
2019-05-02T07:34:30.483Z,13.76
2019-05-02T07:37:23.718Z,13.90
2019-05-02T07:38:02.728Z,13.93
2019-05-02T07:39:27.228Z,13.94
2019-05-02T07:40:03.229Z,13.94
2019-05-02T07:41:03.229Z,14.09
2019-05-02T07:42:05.987Z,14.09
2019-05-02T07:43:03.263Z,14.20
2019-05-02T07:44:09.163Z,14.27
2019-05-02T07:45:24.730Z,14.24
2019-05-02T07:46:26.184Z,14.30
2019-05-02T07:47:04.682Z,14.41
2019-05-02T07:49:38.967Z,14.60
2019-05-02T07:50:36.439Z,14.79
2019-05-02T07:51:36.416Z,14.72
2019-05-02T07:54:07.162Z,14.85
2019-05-02T07:55:10.671Z,14.85
2019-05-02T07:56:07.169Z,14.98
2019-05-02T07:57:10.103Z,15.07
2019-05-02T07:58:08.307Z,15.20
2019-05-02T07:59:07.673Z,15.23
2019-05-02T08:00:32.051Z,15.33
2019-05-02T08:01:12.936Z,15.27
2019-05-02T08:02:29.169Z,15.22
2019-05-02T08:03:08.166Z,15.25
2019-05-02T08:04:11.184Z,15.38
2019-05-02T08:05:33.169Z,15.16
2019-05-02T08:06:08.669Z,15.25
2019-05-02T08:07:08.668Z,15.12
2019-05-02T08:08:08.673Z,15.03
2019-05-02T08:09:09.366Z,14.97
2019-05-02T08:10:16.484Z,14.95
2019-05-02T08:11:09.203Z,14.98
2019-05-02T08:12:09.670Z,15.12
2019-05-02T08:13:12.077Z,15.01
2019-05-02T08:14:09.672Z,14.97
2019-05-02T08:15:13.314Z,15.01
2019-05-02T08:16:13.172Z,15.15
2019-05-02T08:17:16.783Z,15.19
2019-05-02T08:18:10.176Z,15.22
2019-05-02T08:19:11.630Z,15.03
2019-05-02T08:20:13.670Z,15.09
2019-05-02T08:21:14.170Z,15.16
2019-05-02T08:22:13.795Z,15.23
2019-05-02T08:24:42.036Z,15.13
2019-05-02T08:25:45.413Z,15.20
2019-05-02T08:26:45.055Z,15.15
2019-05-02T08:27:44.562Z,15.05
2019-05-02T08:28:42.543Z,14.95
2019-05-02T08:29:42.548Z,15.04
2019-05-02T08:30:42.541Z,15.03
2019-05-02T08:33:18.825Z,15.41
2019-05-02T08:34:17.410Z,15.53
2019-05-02T08:35:17.382Z,15.60
2019-05-02T08:36:17.889Z,15.86
2019-05-02T08:37:21.382Z,15.86
2019-05-02T08:38:38.211Z,15.93
2019-05-02T08:39:17.885Z,15.96
2019-05-02T08:40:42.399Z,16.22
2019-05-02T08:41:20.058Z,16.23
2019-05-02T08:42:42.886Z,16.32
2019-05-02T08:43:40.170Z,16.47
2019-05-02T08:44:18.395Z,16.52
2019-05-02T08:45:18.882Z,16.48
2019-05-02T08:46:39.883Z,16.45
2019-05-02T08:47:19.470Z,16.47
2019-05-02T08:48:22.904Z,16.65
2019-05-02T08:52:22.075Z,17.03
2019-05-02T08:53:26.080Z,16.84
2019-05-02T08:54:22.127Z,16.90
2019-05-02T08:55:45.310Z,16.91
2019-05-02T08:56:22.878Z,17.00
2019-05-02T08:57:23.843Z,17.17
2019-05-02T08:58:22.582Z,17.10
2019-05-02T08:59:29.552Z,17.17
2019-05-02T09:00:23.077Z,17.30
2019-05-02T09:01:34.569Z,17.38
2019-05-02T09:02:26.047Z,17.39
2019-05-02T09:03:23.078Z,17.49
2019-05-02T09:04:29.111Z,17.25
2019-05-02T09:05:46.074Z,17.27
2019-05-02T09:06:24.174Z,17.43
2019-05-02T09:07:23.670Z,17.30
2019-05-02T09:08:46.189Z,17.25
2019-05-02T09:09:27.973Z,17.42
2019-05-02T09:10:28.078Z,17.51
2019-05-02T09:11:24.077Z,17.49
2019-05-02T09:12:24.591Z,17.45
2019-05-02T09:13:29.102Z,17.47
2019-05-02T09:14:24.581Z,17.49
2019-05-02T09:15:24.578Z,17.45
2019-05-02T09:16:29.283Z,17.28
2019-05-02T09:17:35.051Z,17.45
2019-05-02T09:18:30.027Z,17.53
2019-05-02T09:19:26.583Z,17.55
2019-05-02T09:20:27.578Z,17.53
2019-05-02T09:21:34.244Z,17.42
2019-05-02T09:22:51.444Z,17.38
2019-05-02T09:23:27.484Z,16.98
2019-05-02T09:24:28.079Z,17.25
2019-05-02T09:25:26.079Z,17.32
2019-05-02T09:26:35.061Z,17.14
2019-05-02T09:27:31.822Z,17.12
2019-05-02T09:28:26.585Z,17.15
2019-05-02T09:29:26.583Z,17.24
2019-05-02T09:30:26.581Z,17.30
2019-05-02T09:31:26.579Z,17.58
2019-05-02T09:32:27.079Z,17.76
2019-05-02T09:33:32.087Z,17.77
2019-05-02T09:34:27.079Z,17.86
2019-05-02T09:35:27.080Z,17.86
2019-05-02T09:36:52.763Z,17.86
2019-05-02T09:37:26.806Z,17.81
2019-05-02T09:38:32.889Z,17.70
2019-05-02T09:39:32.712Z,17.68
2019-05-02T09:40:28.078Z,17.43
2019-05-02T09:41:34.508Z,17.38
2019-05-02T09:42:28.087Z,17.53
2019-05-02T09:43:29.207Z,17.33
2019-05-02T09:44:56.865Z,17.25
2019-05-02T09:45:33.416Z,17.24
2019-05-02T09:46:28.579Z,17.53
2019-05-02T09:47:33.265Z,17.57
2019-05-02T09:48:28.176Z,17.47
2019-05-02T09:49:29.079Z,17.54
2019-05-02T09:50:53.579Z,17.63
2019-05-02T09:51:29.079Z,17.81
2019-05-02T09:52:32.187Z,17.87
2019-05-02T09:53:29.579Z,17.99
2019-05-02T09:54:29.580Z,18.07
2019-05-02T09:55:33.579Z,18.21
2019-05-02T09:56:30.083Z,18.29
2019-05-02T09:57:31.607Z,18.34
2019-05-02T09:58:31.868Z,18.38
2019-05-02T09:59:30.468Z,18.21
2019-05-02T10:00:32.168Z,18.31
2019-05-02T10:01:55.579Z,18.19
2019-05-02T10:02:32.424Z,18.14
2019-05-02T10:03:51.924Z,18.14
2019-05-02T10:04:52.470Z,18.05
2019-05-02T10:05:32.215Z,18.05
2019-05-02T10:06:32.163Z,18.07
2019-05-02T10:07:57.469Z,18.14
2019-05-02T10:08:32.097Z,17.96
2019-05-02T10:09:32.411Z,18.05
2019-05-02T10:10:32.394Z,18.02
2019-05-02T10:11:32.260Z,18.05
2019-05-02T10:12:35.582Z,18.04
2019-05-02T10:13:32.081Z,18.05
2019-05-02T10:14:33.065Z,18.10
2019-05-02T10:15:32.753Z,18.21
2019-05-02T10:16:32.605Z,18.20
2019-05-02T10:17:37.584Z,18.29
2019-05-02T10:18:33.049Z,18.25
2019-05-02T10:19:32.769Z,18.41
2019-05-02T10:20:36.265Z,18.36
2019-05-02T10:21:33.083Z,18.34
2019-05-02T10:22:58.112Z,18.34
2019-05-02T10:23:33.624Z,18.38
2019-05-02T10:24:38.014Z,18.54
2019-05-02T10:25:38.720Z,18.59
2019-05-02T10:26:33.581Z,18.57
2019-05-02T10:27:33.580Z,18.51
2019-05-02T10:28:41.768Z,18.65
2019-05-02T10:29:57.179Z,18.69
2019-05-02T10:30:35.976Z,18.76
2019-05-02T10:31:37.616Z,18.72
2019-05-02T10:32:34.585Z,18.72
2019-05-02T10:33:38.084Z,18.84
2019-05-02T10:34:34.580Z,18.72
2019-05-02T10:35:40.369Z,18.68
2019-05-02T10:36:35.116Z,18.60
2019-05-02T10:37:56.081Z,18.72
2019-05-02T10:40:15.460Z,18.72
2019-05-02T10:41:12.008Z,18.69
2019-05-02T10:42:32.565Z,18.64
2019-05-02T10:43:32.930Z,18.54
2019-05-02T10:44:14.789Z,18.59
2019-05-02T10:45:15.091Z,18.46
2019-05-02T10:46:37.591Z,18.53
2019-05-02T10:47:34.809Z,18.72
2019-05-02T10:48:24.968Z,18.69
2019-05-02T10:49:12.483Z,18.72
2019-05-02T10:50:36.797Z,18.84
2019-05-02T10:51:12.292Z,18.87
2019-05-02T10:52:12.375Z,18.97
2019-05-02T10:53:15.699Z,18.84
2019-05-02T10:54:20.593Z,18.96
2019-05-02T10:55:14.791Z,18.94
2019-05-02T10:56:16.790Z,18.82
2019-05-02T10:57:12.805Z,18.66
2019-05-02T10:58:35.758Z,18.65
2019-05-02T10:59:13.289Z,18.78
2019-05-02T11:00:13.290Z,18.72
2019-05-02T11:01:12.793Z,18.75
2019-05-02T11:02:37.793Z,18.51
2019-05-02T11:03:13.793Z,18.36
2019-05-02T11:04:13.790Z,18.36
2019-05-02T11:05:16.985Z,18.29
2019-05-02T11:06:37.279Z,18.31
2019-05-02T11:08:49.588Z,18.17
2019-05-02T11:10:12.249Z,18.07
2019-05-02T11:11:12.563Z,18.14
2019-05-02T11:11:53.536Z,18.16
2019-05-02T11:12:56.160Z,18.13
2019-05-02T11:13:53.407Z,18.21
2019-05-02T11:14:51.687Z,18.11
2019-05-02T11:16:12.461Z,18.29
2019-05-02T11:16:52.635Z,18.35
2019-05-02T11:17:52.770Z,18.32
2019-05-02T11:19:15.602Z,18.36
2019-05-02T11:20:13.541Z,18.54
2019-05-02T11:20:52.553Z,18.54
2019-05-02T11:22:14.535Z,18.59
2019-05-02T11:23:12.735Z,18.71
2019-05-02T11:25:25.744Z,18.94
2019-05-02T11:26:27.218Z,18.96
2019-05-02T11:27:25.748Z,19.25
2019-05-02T11:28:28.247Z,19.35
2019-05-02T11:29:52.619Z,19.40
2019-05-02T11:30:41.959Z,19.38
2019-05-02T11:31:26.252Z,19.47
2019-05-02T11:32:49.204Z,19.60
2019-05-02T11:33:26.748Z,19.72
2019-05-02T11:34:32.653Z,19.79
2019-05-02T11:35:26.748Z,20.01
2019-05-02T11:37:58.500Z,20.12
2019-05-02T11:39:08.503Z,20.22
2019-05-02T11:40:26.939Z,20.57
2019-05-02T11:41:02.535Z,21.12
2019-05-02T11:42:03.440Z,21.28
2019-05-02T11:43:02.752Z,21.42
2019-05-02T11:44:02.881Z,21.19
2019-05-02T11:45:30.006Z,21.34
2019-05-02T11:46:02.541Z,21.77
2019-05-02T11:47:01.802Z,21.67
2019-05-02T11:48:01.759Z,21.55
2019-05-02T11:52:06.606Z,21.83
2019-05-02T11:53:09.271Z,22.33
2019-05-02T11:54:09.338Z,22.69
2019-05-02T11:55:07.122Z,22.86
2019-05-02T11:56:11.609Z,22.85
2019-05-02T11:57:07.113Z,23.09
2019-05-02T11:58:09.892Z,23.23
2019-05-02T11:59:07.613Z,22.79
2019-05-02T12:00:09.051Z,22.79
2019-05-02T12:01:07.613Z,22.39
2019-05-02T12:02:17.500Z,22.52
2019-05-02T12:03:08.114Z,22.84
2019-05-02T12:04:29.115Z,22.93
2019-05-02T12:05:08.114Z,23.00
2019-05-02T12:06:12.650Z,22.94
2019-05-02T12:07:08.616Z,22.88
2019-05-02T12:08:12.144Z,22.57
2019-05-02T12:09:08.615Z,22.48
2019-05-02T12:10:09.112Z,22.61
2019-05-02T12:11:13.968Z,22.33
2019-05-02T12:12:09.113Z,22.21
2019-05-02T12:13:19.114Z,22.06
2019-05-02T12:14:09.614Z,21.82
2019-05-02T12:15:11.931Z,21.79
2019-05-02T12:16:09.623Z,21.83
2019-05-02T12:17:09.615Z,22.05
2019-05-02T12:18:09.615Z,22.26
2019-05-02T12:19:14.950Z,22.67
2019-05-02T12:20:11.882Z,23.04
2019-05-02T12:21:11.912Z,23.47
2019-05-02T12:22:12.935Z,24.11
2019-05-02T12:23:32.080Z,24.49
2019-05-02T12:24:12.529Z,24.67
2019-05-02T12:25:14.115Z,25.07
2019-05-02T12:26:12.345Z,25.01
2019-05-02T12:27:32.117Z,25.09
2019-05-02T12:28:33.050Z,25.41
2019-05-02T12:29:12.216Z,25.59
2019-05-02T12:30:15.118Z,25.78
2019-05-02T12:31:13.225Z,26.06
2019-05-02T12:33:43.004Z,25.81
2019-05-02T12:34:43.012Z,25.83
2019-05-02T12:35:46.520Z,25.81
2019-05-02T12:36:46.447Z,25.78
2019-05-02T12:37:47.096Z,25.42
2019-05-02T12:38:43.536Z,25.26
2019-05-02T12:39:44.012Z,25.26
2019-05-02T12:40:48.449Z,25.38
2019-05-02T12:41:44.233Z,25.09
2019-05-02T12:42:44.013Z,25.39
2019-05-02T12:43:44.023Z,25.49
2019-05-02T12:44:44.512Z,25.54
2019-05-02T12:45:48.013Z,25.60
2019-05-02T12:46:44.513Z,25.53
2019-05-02T12:47:44.512Z,25.76
2019-05-02T12:48:45.014Z,26.23
2019-05-02T12:49:45.026Z,26.32
2019-05-02T12:50:45.031Z,25.72
2019-05-02T12:51:49.102Z,25.76
2019-05-02T12:52:46.477Z,25.79
2019-05-02T12:53:45.513Z,25.36
2019-05-02T12:54:46.974Z,24.74
2019-05-02T12:55:45.513Z,24.83
2019-05-02T12:57:12.498Z,24.77
2019-05-02T12:57:46.014Z,24.94
2019-05-02T12:58:46.011Z,25.29
2019-05-02T12:59:46.022Z,25.16
2019-05-02T13:00:48.516Z,25.09
2019-05-02T13:01:46.514Z,25.29
2019-05-02T13:02:50.017Z,25.44
2019-05-02T13:03:46.519Z,25.22
2019-05-02T13:06:18.285Z,25.57
2019-05-02T13:07:18.305Z,25.53
2019-05-02T13:08:21.905Z,25.35
2019-05-02T13:09:18.792Z,25.71
2019-05-02T13:10:18.791Z,26.03
2019-05-02T13:11:18.792Z,26.20
2019-05-02T13:12:18.795Z,26.19
2019-05-02T13:13:22.792Z,26.49
2019-05-02T13:14:19.803Z,26.66
2019-05-02T13:15:18.682Z,26.83
2019-05-02T13:16:19.292Z,27.01
2019-05-02T13:17:19.793Z,26.84
2019-05-02T13:18:23.346Z,26.44
2019-05-02T13:19:37.096Z,26.61
2019-05-02T13:20:22.270Z,26.73
2019-05-02T13:21:21.574Z,26.96
2019-05-02T13:22:21.804Z,27.02
2019-05-02T13:23:22.431Z,26.88
2019-05-02T13:24:22.917Z,26.93
2019-05-02T13:25:27.321Z,27.15
2019-05-02T13:26:24.951Z,27.24
2019-05-02T13:27:22.719Z,27.31
2019-05-02T13:28:22.315Z,27.46
2019-05-02T13:30:56.564Z,27.46
2019-05-02T13:31:54.029Z,27.88
2019-05-02T13:34:24.312Z,27.52
2019-05-02T13:35:24.306Z,27.13
2019-05-02T13:36:28.306Z,26.88
2019-05-02T13:37:24.803Z,26.84
2019-05-02T13:38:24.807Z,26.88
2019-05-02T13:39:27.240Z,26.98
2019-05-02T13:40:24.810Z,27.11
2019-05-02T13:41:29.305Z,26.29
2019-05-02T13:42:46.308Z,25.64
2019-05-02T13:43:25.306Z,25.41
2019-05-02T13:44:25.307Z,25.45
2019-05-02T13:45:25.806Z,25.82
2019-05-02T13:46:26.797Z,25.97
2019-05-02T13:47:29.307Z,26.32
2019-05-02T13:48:25.817Z,26.50
2019-05-02T13:49:54.148Z,26.78
2019-05-02T13:50:27.781Z,26.91
2019-05-02T13:51:47.329Z,27.02
2019-05-02T13:52:56.377Z,27.12
2019-05-02T13:53:34.279Z,27.11
2019-05-02T13:54:47.807Z,27.09
2019-05-02T13:55:26.808Z,27.30
2019-05-02T13:56:26.807Z,27.16
2019-05-02T13:57:57.810Z,27.18
2019-05-02T13:58:48.309Z,27.49